Latest Weather Observations for Warburton

IDD60801

Issued at 5:21 pm CST Saturday 28 January 2023 (issued every 10 minutes, with the page automatically refreshed every 10 minutes)

About weather observations | Map of weather stations | Latest weather observations for NT | Other Formats
Station Details ID: 013011 Name: WARBURTON AIRFIELD Lat: -26.13 Lon: 126.58 Height: 459.0 m
Data from the previous 72 hours. | See also: Recent months at Warburton
Date/Time
CST
Temp
°C
App
Temp
°C
Dew
Point
°C
Rel
Hum
%
Delta-T
°C
Wind Press
QNH
hPa
Press
MSL
hPa
Rain since
9am
mm
Dir  Spd
km/h
Gust
km/h
Spd
kts
Gust
kts
28/05:00pm 28.2 27.8 18.9 57 6.1 S 19 26 10 14 1007.2 1003.6 0.2
28/04:30pm 27.9 27.9 19.7 61 5.4 S 19 26 10 14 1007.3 1003.7 0.2
28/04:00pm 27.5 27.5 19.8 63 5.1 S 19 32 10 17 1007.5 1003.8 0.2
28/03:30pm 27.9 28.3 19.9 61 5.3 SSW 17 26 9 14 1007.5 1003.8 0.2
28/03:00pm 27.6 28.2 20.2 64 4.9 SW 17 26 9 14 1007.6 1003.9 0.2
28/02:30pm 26.4 26.2 19.8 67 4.4 SSW 20 28 11 15 1007.8 1004.1 0.2
28/02:00pm 25.9 25.7 20.5 72 3.6 SSW 22 28 12 15 1008.0 1004.3 0.2
28/01:30pm 26.1 26.4 21.5 76 3.1 SSW 22 32 12 17 1008.0 1004.3 0.2
28/01:00pm 26.7 28.6 20.5 69 4.1 SSW 11 20 6 11 1008.1 1004.4 0.2
28/12:30pm 25.7 27.2 19.8 70 3.9 SSW 11 17 6 9 1008.5 1004.8 0.2
28/12:00pm 24.9 27.0 20.2 75 3.1 S 9 15 5 8 1008.8 1005.1 0.0
28/11:30am 24.1 26.1 20.0 78 2.7 SSE 9 17 5 9 1009.0 1005.4 0.0
28/11:00am 23.2 24.7 20.5 85 1.8 SSE 13 15 7 8 1009.4 1005.8 0.0
28/10:30am 23.0 24.9 20.5 86 1.7 SE 11 15 6 8 1009.6 1006.0 13.4
28/10:00am 22.3 24.0 20.9 92 0.9 SSE 13 17 7 9 1009.9 1006.2 13.4
28/09:30am 22.0 24.0 20.8 93 0.8 SSE 11 17 6 9 1009.7 1006.1 13.4
28/09:00am 22.0 23.5 20.6 92 0.9 SSW 13 17 7 9 1009.5 1005.9 12.8
28/08:30am 22.0 23.7 21.0 94 0.7 SW 13 17 7 9 1008.9 1005.3 12.8
28/08:00am 21.9 24.0 20.9 94 0.7 SW 11 13 6 7 1008.5 1004.8 12.8
28/07:30am 21.8 24.9 21.0 95 0.5 WNW 6 7 3 4 1008.0 1004.3 12.8
28/07:00am 21.7 24.7 20.9 95 0.5 WSW 6 7 3 4 1007.5 1003.8 12.8
28/06:30am 21.6 24.6 20.9 96 0.5 SW 6 7 3 4 1007.5 1003.8 12.8
28/06:00am 21.6 24.0 20.9 96 0.5 S 9 13 5 7 1007.0 1003.4 12.8
28/05:30am 21.4 23.5 20.2 93 0.8 WNW 9 11 5 6 1006.8 1003.2 12.8
28/05:00am 21.2 22.0 19.8 92 0.9 E 15 24 8 13 1005.7 1002.0 12.8
28/04:30am 21.4 21.3 20.7 96 0.5 ENE 22 32 12 17 1005.3 1001.6 12.4
28/04:00am 21.4 21.9 20.9 97 0.3 NE 19 26 10 14 1006.5 1002.8 12.0
28/03:30am 21.2 23.5 20.7 97 0.3 ENE 9 13 5 7 1006.6 1002.9 11.8
28/03:00am 21.2 23.9 20.7 97 0.3 ESE 7 11 4 6 1006.7 1003.0 10.8
28/02:30am 21.1 23.8 20.6 97 0.3 S 7 9 4 5 1007.5 1003.8 7.4
28/02:00am 21.2 23.4 20.5 96 0.5 SSE 9 13 5 7 1007.7 1004.0 2.8
28/01:30am 21.5 23.1 20.8 96 0.5 S 13 19 7 10 1007.7 1004.0 1.8
28/01:00am 22.1 22.5 20.7 92 0.9 SW 19 28 10 15 1007.8 1004.1 1.4
28/12:30am 24.3 24.7 22.4 89 1.3 NNW 24 32 13 17 1008.2 1004.5 0.8
28/12:00am 24.2 24.3 22.5 90 1.2 N 26 33 14 18 1007.0 1003.4 0.8
 
Date/Time
CST
Temp
°C
App
Temp
°C
Dew
Point
°C
Rel
Hum
%
Delta-T
°C
Wind Press
QNH
hPa
Press
MSL
hPa
Rain since
9am
mm
Dir  Spd
km/h
Gust
km/h
Spd
kts
Gust
kts
27/11:30pm 24.0 24.7 22.3 90 1.2 NNE 22 33 12 18 1006.6 1002.9 0.8
27/11:00pm 23.9 25.0 22.3 91 1.1 NNE 20 28 11 15 1006.7 1003.0 0.8
27/10:30pm 24.0 24.8 22.4 91 1.1 NNE 22 30 12 16 1006.9 1003.3 0.6
27/10:00pm 24.8 25.7 21.9 84 2.0 N 20 30 11 16 1007.2 1003.6 0.0
27/09:33pm 24.9 25.6 21.6 82 2.2 NNE 20 30 11 16 1007.1 1003.5 0.0
27/09:30pm 25.0 25.8 21.7 82 2.2 NNE 20 30 11 16 1007.1 1003.5 0.0
27/09:23pm 25.3 26.1 21.4 79 2.6 NNE 19 26 10 14 1006.9 1003.3 0.0
27/09:00pm 25.6 26.4 21.3 77 2.9 NNE 19 30 10 16 1007.3 1003.7 0.0
27/08:30pm 26.0 26.5 20.8 73 3.5 NNE 19 26 10 14 1007.0 1003.4 0.0
27/08:00pm 26.2 25.6 21.2 74 3.4 NNE 26 37 14 20 1006.6 1002.9 0.0
27/07:30pm 27.1 27.7 21.4 71 3.9 NNE 20 30 11 16 1006.8 1003.2 0.0
27/07:00pm 26.6 28.4 21.8 75 3.3 NE 15 20 8 11 1006.8 1003.2 0.0
27/06:30pm 26.5 28.2 21.7 75 3.3 NE 15 20 8 11 1007.1 1003.5 0.0
27/06:00pm 27.3 27.7 21.8 72 3.7 NNE 22 33 12 18 1006.8 1003.2 0.0
27/05:30pm 27.1 26.4 21.8 73 3.6 NNE 28 43 15 23 1006.5 1002.8 0.0
27/05:00pm 26.6 22.1 20.2 68 4.3 N 44 63 24 34 1005.7 1002.0 0.0
27/04:37pm 29.3 24.5 19.3 55 6.6 NNE 43 63 23 34 1006.5 1002.8 0.0
27/04:30pm 29.5 25.1 19.2 54 6.8 N 41 56 22 30 1006.7 1003.0 0.0
27/04:00pm 31.7 29.1 20.6 51 7.5 NNE 35 54 19 29 1006.4 1002.7 0.0
27/03:30pm 31.1 28.3 19.4 49 7.8 NNE 33 56 18 30 1006.1 1002.4 0.0
27/03:02pm 31.0 27.5 19.7 51 7.5 NNE 37 56 20 30 1006.7 1003.0 0.0
27/03:00pm 31.8 28.3 20.4 51 7.7 NNE 39 56 21 30 1006.7 1003.0 0.0
27/02:37pm 32.5 29.8 17.5 40 9.8 NNE 28 54 15 29 1006.8 1003.2 0.0
27/02:30pm 33.8 30.7 16.6 35 11.1 NNE 28 41 15 22 1006.8 1003.2 0.0
27/02:00pm 33.0 30.2 17.2 39 10.3 NNE 28 46 15 25 1007.3 1003.7 0.0
27/01:59pm 33.1 30.3 17.3 39 10.3 NNE 28 46 15 25 1007.2 1003.6 0.0
27/01:30pm 32.9 31.2 16.3 37 10.7 NNE 20 32 11 17 1007.8 1004.1 0.0
27/01:00pm 32.9 29.9 15.8 35 10.9 NNE 26 35 14 19 1008.2 1004.5 0.0
27/12:30pm 32.8 29.2 16.2 37 10.6 N 30 41 16 22 1008.7 1005.0 0.0
27/12:00pm 32.5 30.0 17.2 40 9.9 N 26 39 14 21 1009.0 1005.4 0.0
27/11:30am 31.6 29.9 17.1 41 9.4 NNE 22 32 12 17 1009.0 1005.4 0.0
27/11:00am 31.3 28.2 16.5 41 9.5 NNE 28 39 15 21 1009.3 1005.7 0.0
27/10:30am 30.7 27.6 15.5 39 9.6 NNE 26 46 14 25 1009.7 1006.1 0.0
27/10:21am 30.9 27.5 15.7 39 9.6 NNE 28 46 15 25 1009.7 1006.1 0.0
27/10:00am 30.1 27.5 15.0 40 9.4 NNE 22 32 12 17 1010.0 1006.3 0.0
27/09:30am 29.3 26.6 13.5 38 9.6 N 20 28 11 15 1010.1 1006.4 0.0
27/09:00am 28.9 26.8 13.6 39 9.3 N 17 22 9 12 1009.5 1005.9 0.0
27/08:30am 28.4 26.9 14.3 42 8.7 N 15 24 8 13 1009.2 1005.6 0.0
27/08:00am 27.1 25.0 14.8 47 7.6 NNE 19 26 10 14 1008.9 1005.3 0.0
27/07:30am 26.5 25.2 14.9 49 7.1 NNE 15 20 8 11 1008.5 1004.8 0.0
27/07:00am 26.1 26.0 14.9 50 6.9 NNE 9 15 5 8 1008.2 1004.5 0.0
27/06:30am 26.0 25.3 15.4 52 6.6 NE 13 17 7 9 1008.2 1004.5 0.0
27/06:00am 25.8 24.8 15.5 53 6.4 NE 15 19 8 10 1008.5 1004.8 0.0
27/05:30am 25.4 25.0 16.3 57 5.7 N 13 19 7 10 1008.4 1004.7 0.0
27/05:00am 25.4 23.7 16.3 57 5.7 NNE 20 32 11 17 1009.3 1005.7 0.0
27/04:30am 25.6 21.6 16.2 56 5.9 N 32 37 17 20 1009.3 1005.7 0.0
27/04:00am 24.9 22.6 16.6 60 5.2 NNE 24 32 13 17 1009.9 1006.2 0.0
27/03:30am 25.7 21.5 15.7 54 6.2 NNE 32 44 17 24 1010.2 1006.5 0.0
27/03:01am 25.6 21.0 16.2 56 5.9 NNE 35 54 19 29 1010.2 1006.5 0.0
27/03:00am 25.7 20.7 16.0 55 6.0 NNE 37 54 20 29 1010.2 1006.5 0.0
27/02:31am 26.1 22.0 16.4 55 6.1 NNE 33 52 18 28 1010.5 1006.8 0.0
27/02:30am 26.1 21.6 16.4 55 6.1 NNE 35 52 19 28 1010.6 1006.9 0.0
27/02:00am 26.9 22.4 17.4 56 6.1 NNE 37 57 20 31 1010.8 1007.1 0.0
27/01:42am 28.0 24.7 16.0 48 7.5 NNE 28 50 15 27 1010.8 1007.1 0.0
27/01:30am 27.3 24.3 16.9 53 6.6 N 28 41 15 22 1010.5 1006.8 0.0
27/01:00am 27.8 24.9 16.1 49 7.4 N 26 33 14 18 1010.8 1007.1 0.0
27/12:30am 28.2 24.5 15.1 44 8.1 N 28 37 15 20 1010.2 1006.5 0.0
27/12:00am 28.5 23.9 15.1 44 8.3 N 33 43 18 23 1010.5 1006.8 0.0
 
Date/Time
CST
Temp
°C
App
Temp
°C
Dew
Point
°C
Rel
Hum
%
Delta-T
°C
Wind Press
QNH
hPa
Press
MSL
hPa
Rain since
9am
mm
Dir  Spd
km/h
Gust
km/h
Spd
kts
Gust
kts
26/11:30pm 27.7 22.7 16.0 49 7.3 N 37 48 20 26 1011.0 1007.4 0.0
26/11:00pm 27.8 22.0 16.1 49 7.4 N 41 56 22 30 1010.9 1007.3 0.0
26/10:53pm 27.8 22.8 16.1 49 7.4 N 37 56 20 30 1010.9 1007.3 0.0
26/10:30pm 28.7 22.5 15.9 45 8.1 N 43 57 23 31 1011.1 1007.5 0.0
26/10:00pm 30.6 25.7 14.3 37 10.1 N 33 46 18 25 1011.1 1007.5 0.0
26/09:30pm 30.4 26.7 14.9 39 9.7 N 28 39 15 21 1010.5 1006.8 0.0
26/09:00pm 30.8 27.4 14.8 37 10.0 NNE 26 39 14 21 1010.3 1006.6 0.0
26/08:30pm 31.5 27.7 13.7 33 10.9 NNE 26 35 14 19 1010.0 1006.3 0.0
26/08:00pm 33.0 28.7 13.1 30 12.2 NNE 28 39 15 21 1009.7 1006.1 0.0
26/07:30pm 33.4 28.5 12.4 28 12.8 NE 30 41 16 22 1009.4 1005.8 0.0
26/07:08pm 34.6 29.1 11.7 25 13.8 NE 32 52 17 28 1009.2 1005.6 0.0
26/07:00pm 35.2 31.1 11.6 24 14.3 ENE 24 43 13 23 1009.1 1005.5 0.0
26/06:30pm 35.3 30.7 12.3 25 14.1 ENE 28 37 15 20 1008.8 1005.1 0.0
26/06:28pm 35.4 30.6 11.7 23 14.3 ENE 28 35 15 19 1008.7 1005.0 0.0
26/06:00pm 36.3 34.2 9.8 20 15.7 NNW 11 17 6 9 1008.4 1004.7 0.0
26/05:30pm 36.5 31.6 9.9 20 15.8 N 26 41 14 22 1008.1 1004.4 0.0
26/05:00pm 37.0 33.3 10.3 20 15.9 NW 20 32 11 17 1008.1 1004.4 0.0
26/04:30pm 37.0 31.6 9.6 19 16.2 WNW 28 41 15 22 1008.1 1004.4 0.0
26/04:00pm 36.4 29.7 9.8 20 15.7 NNW 35 52 19 28 1008.3 1004.6 0.0
26/03:48pm 36.6 30.6 10.0 20 15.8 NNW 32 52 17 28 1008.2 1004.5 0.0
26/03:30pm 37.8 31.0 9.4 18 16.8 NNW 35 50 19 27 1008.5 1004.8 0.0
26/03:00pm 38.7 33.2 7.4 15 18.0 N 26 35 14 19 1008.5 1004.8 0.0
26/02:30pm 39.2 35.1 8.8 16 17.9 N 20 30 11 16 1008.7 1005.0 0.0
26/02:00pm 40.6 36.6 8.9 15 18.8 NNE 20 32 11 17 1009.0 1005.4 0.0
26/01:30pm 40.6 35.9 7.9 14 19.2 NNE 22 32 12 17 1009.3 1005.7 0.0
26/01:00pm 41.0 36.3 9.2 15 19.0 NNE 24 41 13 22 1009.7 1006.1 0.0
26/12:30pm 40.0 35.0 9.4 16 18.3 N 26 54 14 29 1010.3 1006.6 0.0
26/12:00pm 38.7 34.4 9.3 17 17.4 N 22 39 12 21 1010.6 1006.9 0.0
26/11:30am 38.1 33.5 9.6 18 16.9 NNE 24 35 13 19 1011.0 1007.4 0.0
26/11:00am 37.7 33.8 9.3 18 16.7 NNE 20 32 11 17 1011.2 1007.6 0.0
26/10:30am 36.4 32.2 8.3 18 16.3 NE 20 32 11 17 1011.4 1007.8 0.0
26/10:00am 34.9 29.5 4.4 15 16.5 NE 22 35 12 19 1011.8 1008.2 0.0
26/09:30am 34.7 27.8 2.3 13 16.9 NE 28 39 15 21 1011.8 1008.2 0.0
26/09:00am 33.5 27.4 0.2 12 16.7 ENE 22 37 12 20 1011.8 1008.2 0.0
26/08:30am 31.7 25.8 -2.3 11 16.2 E 19 28 10 15 1011.8 1008.2 0.0
26/08:00am 29.6 23.5 -3.9 11 15.2 ESE 19 24 10 13 1011.7 1008.1 0.0
26/07:30am 28.9 22.2 -4.5 11 15.0 ESE 22 28 12 15 1011.6 1008.0 0.0
26/07:00am 28.4 21.2 -4.9 11 14.7 ESE 24 33 13 18 1011.3 1007.7 0.0
26/06:30am 26.8 20.5 -6.1 11 14.1 ESE 19 26 10 14 1011.0 1007.4 0.0
26/06:00am 26.6 20.3 -6.2 11 14.0 ESE 19 24 10 13 1010.8 1007.1 0.0
26/05:30am 27.1 20.7 -7.1 10 14.4 ESE 19 24 10 13 1010.5 1006.8 0.0
26/05:00am 27.4 21.4 -6.9 10 14.5 ESE 17 20 9 11 1010.1 1006.4 0.0
26/04:30am 29.1 22.4 -8.5 8 15.7 ESE 20 26 11 14 1009.9 1006.2 0.0
26/04:00am 28.2 21.7 -7.6 9 15.1 ESE 19 24 10 13 1009.9 1006.2 0.0
26/03:30am 27.6 21.0 -9.6 8 15.1 ESE 19 24 10 13 1010.0 1006.3 0.0
26/03:00am 28.3 22.1 -9.1 8 15.4 ESE 17 24 9 13 1010.0 1006.3 0.0
26/02:30am 28.6 22.9 -7.3 9 15.3 SE 15 20 8 11 1009.9 1006.2 0.0
26/02:00am 26.9 22.4 -7.2 10 14.3 ESE 9 13 5 7 1009.6 1006.0 0.0
26/01:30am 27.6 22.6 -4.3 12 14.2 SE 13 15 7 8 1009.9 1006.2 0.0
26/01:00am 28.8 23.6 -5.8 10 15.1 ESE 13 15 7 8 1010.1 1006.4 0.0
26/12:30am 28.2 23.8 -2.8 13 14.2 ESE 11 13 6 7 1010.4 1006.7 0.0
26/12:00am 28.9 24.5 -2.3 13 14.5 ESE 11 13 6 7 1010.8 1007.1 0.0
 
Date/Time
CST
Temp
°C
App
Temp
°C
Dew
Point
°C
Rel
Hum
%
Delta-T
°C
Wind Press
QNH
hPa
Press
MSL
hPa
Rain since
9am
mm
Dir  Spd
km/h
Gust
km/h
Spd
kts
Gust
kts
25/11:30pm 29.8 25.0 -2.6 12 15.1 SE 13 15 7 8 1010.7 1007.0 0.0
25/11:00pm 30.5 25.6 -3.3 11 15.6 SE 13 13 7 7 1010.7 1007.0 0.0
25/10:30pm 31.4 26.6 -2.6 11 16.1 ESE 13 15 7 8 1010.6 1006.9 0.0
25/10:00pm 32.7 28.2 -2.9 10 16.9 ESE 11 15 6 8 1010.4 1006.7 0.0
25/09:30pm 33.7 28.8 -3.5 9 17.6 ESE 13 15 7 8 1010.0 1006.3 0.0
25/09:00pm 34.8 30.0 -2.7 9 18.1 SE 13 15 7 8 1009.5 1005.9 0.0
25/08:30pm 35.9 31.0 -3.5 8 18.9 SE 13 15 7 8 1009.2 1005.6 0.0
25/08:00pm 37.5 31.2 -4.1 7 20.0 SE 20 32 11 17 1009.0 1005.4 0.0
25/07:30pm 38.6 32.4 -3.3 7 20.6 SE 20 30 11 16 1008.7 1005.0 0.0
25/07:00pm 39.3 32.9 -4.8 6 21.2 ESE 20 28 11 15 1008.5 1004.8 0.0

Other formats

Comma delimited format used in spreadsheet applications
http://www.bom.gov.au/fwo/IDD60801/IDD60801.94457.axf

JavaScript Object Notation format (JSON) in row-major order
http://www.bom.gov.au/fwo/IDD60801/IDD60801.94457.json

Data quality

Most of these data are generated automatically and are frequently updated. Quality checks on data are not normally performed. It is possible for incorrect values to appear. Refer to information at About Latest Weather Observations and please check the disclaimer before using these data.